createdAt,value
2019-06-01T00:00:11.946Z,10.53
2019-06-01T00:02:38.689Z,8.67
2019-06-01T00:05:07.558Z,8.37
2019-06-01T00:07:36.285Z,10.27
2019-06-01T00:10:08.437Z,10.53
2019-06-01T00:12:37.051Z,8.97
2019-06-01T00:15:06.688Z,8.97
2019-06-01T00:17:35.372Z,9.03
2019-06-01T00:20:05.011Z,7.97
2019-06-01T00:22:33.571Z,10.97
2019-06-01T00:25:02.142Z,9.63
2019-06-01T00:27:30.826Z,9.30
2019-06-01T00:29:59.329Z,8.47
2019-06-01T00:32:27.952Z,8.80
2019-06-01T00:34:56.503Z,10.10
2019-06-01T00:37:25.126Z,11.17
2019-06-01T00:39:53.659Z,8.83
2019-06-01T00:42:22.288Z,8.93
2019-06-01T00:44:50.917Z,9.03
2019-06-01T00:47:19.675Z,9.33
2019-06-01T00:49:48.853Z,9.23
2019-06-01T00:52:17.568Z,9.33
2019-06-01T00:54:47.255Z,9.60
2019-06-01T00:57:16.055Z,13.60
2019-06-01T00:59:45.910Z,10.13
2019-06-01T01:02:14.617Z,9.53
2019-06-01T01:04:44.299Z,9.03
2019-06-01T01:07:13.066Z,8.43
2019-06-01T01:09:41.633Z,9.17
2019-06-01T01:12:10.274Z,10.70
2019-06-01T01:14:38.850Z,8.50
2019-06-01T01:17:07.396Z,10.03
2019-06-01T01:19:35.948Z,8.70
2019-06-01T01:22:05.832Z,9.67
2019-06-01T01:24:34.380Z,10.20
2019-06-01T01:27:02.863Z,12.40
2019-06-01T01:29:31.396Z,9.07
2019-06-01T01:31:59.971Z,10.33
2019-06-01T01:34:28.566Z,9.00
2019-06-01T01:36:58.099Z,11.70
2019-06-01T01:39:26.715Z,9.77
2019-06-01T01:41:56.255Z,10.33
2019-06-01T01:44:24.927Z,11.00
2019-06-01T01:46:53.403Z,9.03
2019-06-01T01:49:22.073Z,11.23
2019-06-01T01:51:50.651Z,12.67
2019-06-01T01:54:19.489Z,12.07
2019-06-01T01:56:48.031Z,10.27
2019-06-01T01:59:16.608Z,9.77
2019-06-01T02:01:45.147Z,12.97
2019-06-01T02:04:13.702Z,11.00
2019-06-01T02:06:42.380Z,9.80
2019-06-01T02:09:10.939Z,10.00
2019-06-01T02:11:41.300Z,8.50
2019-06-01T02:14:09.882Z,9.13
2019-06-01T02:16:38.632Z,9.00
2019-06-01T02:19:07.425Z,9.77
2019-06-01T02:21:36.010Z,8.50
2019-06-01T02:24:04.838Z,9.90
2019-06-01T02:26:33.448Z,8.73
2019-06-01T02:29:02.991Z,10.63
2019-06-01T02:31:41.719Z,10.10
2019-06-01T02:34:03.955Z,9.57
2019-06-01T02:36:32.810Z,11.67
2019-06-01T02:39:03.106Z,10.93
2019-06-01T02:41:31.505Z,9.80
2019-06-01T02:44:01.629Z,11.40
2019-06-01T02:46:30.346Z,8.50
2019-06-01T02:48:59.817Z,10.03
2019-06-01T02:51:28.868Z,10.10
2019-06-01T02:53:57.667Z,8.00
2019-06-01T02:56:26.362Z,10.03
2019-06-01T02:58:56.034Z,12.23
2019-06-01T03:01:36.599Z,10.33
2019-06-01T03:04:10.090Z,9.93
2019-06-01T03:06:41.045Z,11.93
2019-06-01T03:09:10.510Z,11.40
2019-06-01T03:11:40.508Z,13.17
2019-06-01T03:14:10.740Z,11.10
2019-06-01T03:16:41.599Z,9.60
2019-06-01T03:19:10.395Z,10.17
2019-06-01T03:21:39.108Z,10.63
2019-06-01T03:24:10.726Z,11.23
2019-06-01T03:26:42.460Z,11.87
2019-06-01T03:29:16.912Z,11.17
2019-06-01T03:31:46.133Z,10.10
2019-06-01T03:34:14.827Z,10.60
2019-06-01T03:36:44.083Z,11.23
2019-06-01T03:39:13.082Z,9.30
2019-06-01T03:41:42.180Z,10.37
2019-06-01T03:44:10.787Z,11.13
2019-06-01T03:46:39.351Z,9.83
2019-06-01T03:49:07.973Z,11.87
2019-06-01T03:51:36.520Z,10.33
2019-06-01T03:54:06.883Z,10.27
2019-06-01T03:56:35.563Z,10.77
2019-06-01T03:59:05.096Z,10.83
2019-06-01T04:01:33.915Z,12.00
2019-06-01T04:04:03.065Z,11.43
2019-06-01T04:06:31.826Z,11.03
2019-06-01T04:09:01.564Z,9.87
2019-06-01T04:11:30.269Z,11.23
2019-06-01T04:13:58.882Z,10.03
2019-06-01T04:16:27.446Z,10.40
2019-06-01T04:18:55.909Z,10.63
2019-06-01T04:21:24.449Z,12.60
2019-06-01T04:23:52.951Z,10.13
2019-06-01T04:26:21.572Z,10.17
2019-06-01T04:28:50.235Z,12.27
2019-06-01T04:31:18.963Z,9.40
2019-06-01T04:33:47.911Z,11.20
2019-06-01T04:36:16.620Z,11.43
2019-06-01T04:38:45.206Z,13.07
2019-06-01T04:41:14.768Z,10.70
2019-06-01T04:43:43.383Z,11.70
2019-06-01T04:46:12.335Z,11.93
2019-06-01T04:48:41.176Z,9.80
2019-06-01T04:51:11.693Z,12.80
2019-06-01T04:53:39.968Z,9.10
2019-06-01T04:56:09.045Z,9.53
2019-06-01T04:58:37.770Z,10.27
2019-06-01T05:01:06.904Z,11.37
2019-06-01T05:03:35.614Z,12.03
2019-06-01T05:06:05.063Z,10.67
2019-06-01T05:08:33.766Z,13.47
2019-06-01T05:11:05.383Z,10.97
2019-06-01T05:13:32.835Z,9.37
2019-06-01T05:16:01.425Z,11.23
2019-06-01T05:18:29.983Z,10.17
2019-06-01T05:20:58.617Z,10.17
2019-06-01T05:23:27.625Z,8.80
2019-06-01T05:25:56.247Z,11.07
2019-06-01T05:28:24.877Z,9.73
2019-06-01T05:30:53.450Z,10.70
2019-06-01T05:33:36.489Z,9.80
2019-06-01T05:35:52.419Z,11.00
2019-06-01T05:38:20.998Z,9.23
2019-06-01T05:40:49.624Z,9.60
2019-06-01T05:43:19.915Z,8.97
2019-06-01T05:45:48.427Z,9.47
2019-06-01T05:48:24.616Z,10.10
2019-06-01T05:50:47.222Z,10.00
2019-06-01T05:53:16.741Z,12.17
2019-06-01T05:55:45.471Z,8.63
2019-06-01T05:58:15.119Z,10.07
2019-06-01T06:00:44.209Z,9.60
2019-06-01T06:03:15.408Z,10.23
2019-06-01T06:05:43.081Z,9.20
2019-06-01T06:08:12.829Z,8.27
2019-06-01T06:10:42.012Z,9.47
2019-06-01T06:13:11.096Z,7.73
2019-06-01T06:15:39.984Z,8.03
2019-06-01T06:18:08.531Z,8.60
2019-06-01T06:20:37.184Z,8.33
2019-06-01T06:23:05.773Z,8.57
2019-06-01T06:25:37.681Z,7.83
2019-06-01T06:28:04.794Z,9.20
2019-06-01T06:30:33.462Z,8.00
2019-06-01T06:33:02.359Z,8.77
2019-06-01T06:35:30.986Z,8.07
2019-06-01T06:37:59.517Z,7.47
2019-06-01T06:40:28.192Z,9.23
2019-06-01T06:42:56.764Z,6.77
2019-06-01T06:45:25.446Z,9.17
2019-06-01T06:47:54.068Z,8.43
2019-06-01T06:50:23.589Z,9.00
2019-06-01T06:52:52.219Z,7.83
2019-06-01T06:55:21.896Z,8.40
2019-06-01T06:57:50.622Z,8.13
2019-06-01T07:00:20.614Z,7.80
2019-06-01T07:02:49.387Z,8.70
2019-06-01T07:05:19.027Z,8.37
2019-06-01T07:07:47.977Z,9.30
2019-06-01T07:10:35.971Z,7.97
2019-06-01T07:13:04.770Z,8.03
2019-06-01T07:15:33.410Z,7.93
2019-06-01T07:18:02.187Z,8.53
2019-06-01T07:20:31.949Z,8.70
2019-06-01T07:23:00.518Z,8.00
2019-06-01T07:25:29.221Z,7.13
2019-06-01T07:27:57.793Z,8.57
2019-06-01T07:30:26.416Z,10.10
2019-06-01T07:32:54.934Z,9.03
2019-06-01T07:35:24.450Z,8.37
2019-06-01T07:37:53.072Z,8.40
2019-06-01T07:40:22.968Z,9.93
2019-06-01T07:42:51.820Z,8.20
2019-06-01T07:45:20.821Z,8.93
2019-06-01T07:47:49.641Z,9.63
2019-06-01T07:50:18.363Z,8.13
2019-06-01T07:52:46.914Z,8.20
2019-06-01T07:55:15.552Z,8.37
2019-06-01T07:57:44.443Z,6.90
2019-06-01T08:00:13.258Z,5.67
2019-06-01T08:02:41.775Z,6.50
2019-06-01T08:05:10.441Z,8.20
2019-06-01T08:07:38.972Z,6.20
2019-06-01T08:10:07.721Z,5.77
2019-06-01T08:12:36.356Z,8.23
2019-06-01T08:15:06.655Z,7.17
2019-06-01T08:17:35.205Z,6.33
2019-06-01T08:20:04.443Z,7.27
2019-06-01T08:22:33.211Z,7.80
2019-06-01T08:25:01.824Z,7.33
2019-06-01T08:27:30.596Z,11.13
2019-06-01T08:29:59.337Z,6.47
2019-06-01T08:32:28.709Z,5.83
2019-06-01T08:35:07.884Z,7.73
2019-06-01T08:37:27.597Z,8.13
2019-06-01T08:39:59.163Z,6.53
2019-06-01T08:42:27.393Z,4.90
2019-06-01T08:44:56.014Z,4.47
2019-06-01T08:47:25.646Z,6.23
2019-06-01T08:49:54.409Z,5.77
2019-06-01T08:52:23.876Z,6.37
2019-06-01T08:54:52.671Z,8.23
2019-06-01T08:57:22.134Z,9.23
2019-06-01T08:59:50.784Z,6.13
2019-06-01T09:02:19.359Z,5.73
2019-06-01T09:04:47.942Z,4.03
2019-06-01T09:07:16.587Z,8.40
2019-06-01T09:09:45.371Z,5.87
2019-06-01T09:12:13.955Z,7.57
2019-06-01T09:14:42.517Z,6.00
2019-06-01T09:17:11.214Z,5.70
2019-06-01T09:19:39.843Z,6.17
2019-06-01T09:22:08.433Z,6.53
2019-06-01T09:24:37.072Z,7.47
2019-06-01T09:27:05.750Z,3.93
2019-06-01T09:29:34.342Z,3.47
2019-06-01T09:32:02.844Z,3.47
2019-06-01T09:34:32.416Z,2.77
2019-06-01T09:37:01.398Z,5.30
2019-06-01T09:39:30.968Z,4.23
2019-06-01T09:41:59.636Z,2.23
2019-06-01T09:44:29.123Z,4.07
2019-06-01T09:46:57.735Z,2.20
2019-06-01T09:49:27.269Z,2.77
2019-06-01T09:52:00.184Z,3.83
2019-06-01T09:54:29.391Z,2.80
2019-06-01T09:56:58.997Z,2.20
2019-06-01T09:59:27.754Z,3.63
2019-06-01T10:01:56.293Z,2.10
2019-06-01T10:04:24.879Z,3.07
2019-06-01T10:06:53.900Z,1.63
2019-06-01T10:09:22.454Z,2.43
2019-06-01T10:11:51.166Z,1.60
2019-06-01T10:14:19.875Z,2.67
2019-06-01T10:16:48.492Z,2.40
2019-06-01T10:19:17.067Z,1.90
2019-06-01T10:21:45.680Z,3.43
2019-06-01T10:24:14.281Z,3.00
2019-06-01T10:26:42.907Z,3.63
2019-06-01T10:29:11.655Z,3.47
2019-06-01T10:31:41.636Z,2.70
2019-06-01T10:34:10.547Z,3.80
2019-06-01T10:36:40.158Z,2.93
2019-06-01T10:39:08.956Z,2.80
2019-06-01T10:41:37.768Z,2.63
2019-06-01T10:44:06.504Z,3.07
2019-06-01T10:46:35.984Z,1.87
2019-06-01T10:49:05.097Z,5.17
2019-06-01T10:51:34.037Z,2.47
2019-06-01T10:54:02.860Z,2.30
2019-06-01T10:56:32.299Z,3.53
2019-06-01T10:59:01.418Z,1.87
2019-06-01T11:01:32.453Z,2.33
2019-06-01T11:04:19.753Z,2.77
2019-06-01T11:06:49.013Z,3.27
2019-06-01T11:09:17.636Z,3.07
2019-06-01T11:11:46.348Z,3.23
2019-06-01T11:14:14.830Z,1.60
2019-06-01T11:16:44.076Z,3.40
2019-06-01T11:19:12.966Z,2.73
2019-06-01T11:21:41.802Z,3.63
2019-06-01T11:24:10.453Z,3.10
2019-06-01T11:26:39.714Z,3.37
2019-06-01T11:29:08.362Z,2.77
2019-06-01T11:31:38.281Z,4.43
2019-06-01T11:34:07.032Z,4.90
2019-06-01T11:36:36.199Z,3.30
2019-06-01T11:39:07.135Z,2.87
2019-06-01T11:41:36.386Z,2.13
2019-06-01T11:44:05.201Z,1.97
2019-06-01T11:46:34.735Z,4.63
2019-06-01T11:49:03.366Z,2.40
2019-06-01T11:51:32.054Z,2.00
2019-06-01T11:54:00.717Z,2.63
2019-06-01T11:56:29.412Z,4.27
2019-06-01T11:58:58.072Z,2.73
2019-06-01T12:01:26.604Z,3.30
2019-06-01T12:03:55.103Z,4.53
2019-06-01T12:06:23.729Z,2.27
2019-06-01T12:08:52.288Z,2.43
2019-06-01T12:11:20.789Z,3.67
2019-06-01T12:13:49.341Z,3.10
2019-06-01T12:16:17.897Z,2.00
2019-06-01T12:18:46.905Z,2.60
2019-06-01T12:21:15.546Z,1.77
2019-06-01T12:23:45.527Z,3.03
2019-06-01T12:26:14.324Z,2.67
2019-06-01T12:28:43.791Z,3.67
2019-06-01T12:31:12.520Z,1.70
2019-06-01T12:33:41.992Z,2.47
2019-06-01T12:36:10.723Z,1.97
2019-06-01T12:38:53.183Z,1.63
2019-06-01T12:41:23.012Z,3.50
2019-06-01T12:44:09.171Z,3.87
2019-06-01T12:46:41.762Z,2.23
2019-06-01T12:49:10.633Z,1.77
2019-06-01T12:51:40.602Z,1.83
2019-06-01T12:54:09.529Z,3.70
2019-06-01T12:56:38.162Z,3.77
2019-06-01T12:59:07.071Z,2.73
2019-06-01T13:01:35.682Z,2.80
2019-06-01T13:04:04.583Z,3.60
2019-06-01T13:06:33.243Z,3.53
2019-06-01T13:09:01.847Z,1.60
2019-06-01T13:11:30.473Z,2.30
2019-06-01T13:13:59.054Z,4.53
2019-06-01T13:16:27.878Z,2.50
2019-06-01T13:18:56.514Z,2.13
2019-06-01T13:21:27.618Z,2.17
2019-06-01T13:23:55.368Z,3.37
2019-06-01T13:26:25.248Z,2.40
2019-06-01T13:28:53.906Z,2.70
2019-06-01T13:31:22.461Z,2.97
2019-06-01T13:33:52.375Z,3.27
2019-06-01T13:36:21.378Z,3.13
2019-06-01T13:38:50.871Z,1.23
2019-06-01T13:41:19.496Z,7.13
2019-06-01T13:43:49.346Z,5.73
2019-06-01T13:46:18.185Z,2.43
2019-06-01T13:48:47.473Z,2.93
2019-06-01T13:51:16.192Z,2.60
2019-06-01T13:53:44.818Z,7.07
2019-06-01T13:56:13.438Z,3.43
2019-06-01T13:58:42.080Z,4.27
2019-06-01T14:01:10.725Z,4.50
2019-06-01T14:03:39.303Z,3.00
2019-06-01T14:06:07.915Z,3.83
2019-06-01T14:08:36.552Z,3.10
2019-06-01T14:11:05.276Z,4.20
2019-06-01T14:13:33.936Z,2.73
2019-06-01T14:16:02.495Z,3.00
2019-06-01T14:18:31.130Z,3.53
2019-06-01T14:20:59.974Z,2.63
2019-06-01T14:23:28.583Z,4.20
2019-06-01T14:25:57.051Z,5.00
2019-06-01T14:28:25.642Z,2.97
2019-06-01T14:30:54.371Z,3.07
2019-06-01T14:33:42.400Z,2.50
2019-06-01T14:36:11.107Z,6.43
2019-06-01T14:38:47.047Z,2.37
2019-06-01T14:41:09.963Z,5.27
2019-06-01T14:43:38.626Z,3.00
2019-06-01T14:46:07.292Z,5.67
2019-06-01T14:48:35.845Z,2.50
2019-06-01T14:51:04.481Z,3.47
2019-06-01T14:53:33.110Z,5.67
2019-06-01T14:56:01.674Z,4.85
2019-06-01T14:58:30.166Z,2.37
2019-06-01T15:00:58.901Z,1.70
2019-06-01T15:03:27.502Z,2.45
2019-06-01T15:05:56.576Z,4.00
2019-06-01T15:08:25.254Z,4.37
2019-06-01T15:10:55.279Z,4.03
2019-06-01T15:13:24.036Z,3.57
2019-06-01T15:15:53.429Z,7.73
2019-06-01T15:18:22.088Z,4.63
2019-06-01T15:20:51.679Z,8.03
2019-06-01T15:23:20.275Z,4.37
2019-06-01T15:25:50.154Z,3.80
2019-06-01T15:28:19.002Z,2.57
2019-06-01T15:30:48.285Z,3.63
2019-06-01T15:33:16.876Z,2.10
2019-06-01T15:35:45.353Z,5.13
2019-06-01T15:38:13.929Z,3.00
2019-06-01T15:40:42.682Z,4.90
2019-06-01T15:43:11.267Z,4.40
2019-06-01T15:45:41.353Z,3.97
2019-06-01T15:48:10.251Z,5.87
2019-06-01T15:50:38.878Z,3.40
2019-06-01T15:53:26.729Z,8.07
2019-06-01T15:55:56.482Z,4.80
2019-06-01T15:58:25.246Z,4.00
2019-06-01T16:00:54.939Z,4.87
2019-06-01T16:03:23.636Z,2.77
2019-06-01T16:05:53.032Z,5.70
2019-06-01T16:08:21.771Z,4.00
2019-06-01T16:10:50.391Z,5.00
2019-06-01T16:13:18.887Z,7.70
2019-06-01T16:15:47.479Z,3.60
2019-06-01T16:18:16.112Z,3.90
2019-06-01T16:20:44.762Z,3.63
2019-06-01T16:23:13.377Z,4.43
2019-06-01T16:25:42.139Z,3.13
2019-06-01T16:28:10.869Z,5.73
2019-06-01T16:30:39.560Z,4.10
2019-06-01T16:33:08.113Z,5.37
2019-06-01T16:35:36.917Z,6.80
2019-06-01T16:38:05.948Z,5.57
2019-06-01T16:40:34.694Z,8.47
2019-06-01T16:43:03.614Z,4.60
2019-06-01T16:45:32.366Z,3.80
2019-06-01T16:48:01.627Z,5.23
2019-06-01T16:50:30.390Z,6.83
2019-06-01T16:53:00.188Z,4.83
2019-06-01T16:55:31.489Z,5.00
2019-06-01T16:57:59.207Z,4.10
2019-06-01T17:00:27.724Z,3.73
2019-06-01T17:02:56.875Z,4.70
2019-06-01T17:05:25.576Z,5.47
2019-06-01T17:07:54.146Z,4.73
2019-06-01T17:10:26.547Z,3.80
2019-06-01T17:12:53.085Z,5.23
2019-06-01T17:15:21.732Z,5.03
2019-06-01T17:17:50.438Z,5.63
2019-06-01T17:20:37.327Z,6.10
2019-06-01T17:23:22.934Z,7.17
2019-06-01T17:25:36.215Z,5.50
2019-06-01T17:28:07.091Z,6.50
2019-06-01T17:30:36.021Z,7.10
2019-06-01T17:33:06.532Z,3.53
2019-06-01T17:35:36.291Z,4.73
2019-06-01T17:38:07.316Z,3.87
2019-06-01T17:40:39.681Z,4.47
2019-06-01T17:43:07.029Z,5.70
2019-06-01T17:45:36.025Z,3.27
2019-06-01T17:48:18.087Z,7.10
2019-06-01T17:50:36.192Z,4.40
2019-06-01T17:53:05.067Z,4.53
2019-06-01T17:55:38.335Z,5.73
2019-06-01T17:58:07.912Z,5.70
2019-06-01T18:00:36.883Z,4.03
2019-06-01T18:03:07.995Z,4.27
2019-06-01T18:05:37.302Z,5.13
2019-06-01T18:08:06.419Z,3.90
2019-06-01T18:10:50.232Z,6.57
2019-06-01T18:13:08.408Z,4.13
2019-06-01T18:15:37.462Z,6.70
2019-06-01T18:18:06.616Z,6.00
2019-06-01T18:20:35.982Z,5.67
2019-06-01T18:23:07.201Z,5.50
2019-06-01T18:25:35.595Z,3.83
2019-06-01T18:28:04.567Z,5.50
2019-06-01T18:30:33.536Z,3.93
2019-06-01T18:33:03.009Z,5.63
2019-06-01T18:35:32.485Z,4.23
2019-06-01T18:38:01.147Z,3.23
2019-06-01T18:40:29.706Z,4.97
2019-06-01T18:43:01.908Z,4.50
2019-06-01T18:45:30.761Z,2.93
2019-06-01T18:47:59.557Z,2.93
2019-06-01T18:50:28.413Z,2.90
2019-06-01T18:52:57.096Z,3.60
2019-06-01T18:55:27.690Z,3.77
2019-06-01T18:57:59.052Z,3.97
2019-06-01T19:00:27.740Z,3.50
2019-06-01T19:02:56.378Z,5.13
2019-06-01T19:05:25.220Z,5.03
2019-06-01T19:07:53.934Z,3.13
2019-06-01T19:10:23.008Z,2.90
2019-06-01T19:12:51.911Z,4.07
2019-06-01T19:15:28.592Z,5.47
2019-06-01T19:17:51.215Z,4.47
2019-06-01T19:20:19.863Z,4.97
2019-06-01T19:22:48.488Z,4.03
2019-06-01T19:25:17.244Z,4.83
2019-06-01T19:27:45.971Z,4.00
2019-06-01T19:30:17.143Z,3.90
2019-06-01T19:32:45.872Z,4.87
2019-06-01T19:35:15.383Z,6.13
2019-06-01T19:37:44.373Z,4.07
2019-06-01T19:40:15.525Z,3.97
2019-06-01T19:42:44.128Z,4.77
2019-06-01T19:45:24.494Z,7.00
2019-06-01T19:47:43.137Z,3.90
2019-06-01T19:50:12.181Z,4.83
2019-06-01T19:52:40.789Z,7.23
2019-06-01T19:55:10.708Z,4.73
2019-06-01T19:57:39.484Z,5.27
2019-06-01T20:00:08.291Z,8.17
2019-06-01T20:02:36.865Z,5.63
2019-06-01T20:05:06.839Z,5.30
2019-06-01T20:07:35.523Z,4.53
2019-06-01T20:10:06.631Z,5.37
2019-06-01T20:12:35.278Z,4.53
2019-06-01T20:15:05.655Z,5.77
2019-06-01T20:17:34.345Z,6.70
2019-06-01T20:20:03.385Z,5.80
2019-06-01T20:22:31.931Z,4.23
2019-06-01T20:25:00.640Z,4.03
2019-06-01T20:27:29.236Z,6.23
2019-06-01T20:29:57.834Z,6.83
2019-06-01T20:32:26.452Z,4.63
2019-06-01T20:34:56.173Z,5.80
2019-06-01T20:37:24.794Z,5.37
2019-06-01T20:39:53.292Z,4.17
2019-06-01T20:42:30.216Z,4.37
2019-06-01T20:44:52.069Z,5.47
2019-06-01T20:47:21.081Z,7.60
2019-06-01T20:49:49.772Z,5.93
2019-06-01T20:52:19.010Z,5.00
2019-06-01T20:54:47.708Z,4.60
2019-06-01T20:57:17.472Z,5.83
2019-06-01T20:59:46.228Z,4.93
2019-06-01T21:02:15.736Z,4.30
2019-06-01T21:04:44.897Z,7.17
2019-06-01T21:07:13.711Z,4.80
2019-06-01T21:09:42.478Z,5.33
2019-06-01T21:12:11.183Z,5.17
2019-06-01T21:14:41.026Z,4.60
2019-06-01T21:17:10.067Z,6.90
2019-06-01T21:19:38.752Z,6.80
2019-06-01T21:22:07.404Z,6.13
2019-06-01T21:24:36.154Z,5.97
2019-06-01T21:27:04.966Z,5.20
2019-06-01T21:29:33.849Z,6.33
2019-06-01T21:32:02.505Z,5.53
2019-06-01T21:34:31.235Z,4.63
2019-06-01T21:36:59.794Z,5.27
2019-06-01T21:39:28.427Z,7.07
2019-06-01T21:41:57.015Z,6.40
2019-06-01T21:44:25.782Z,8.00
2019-06-01T21:46:54.469Z,8.57
2019-06-01T21:49:24.118Z,6.00
2019-06-01T21:51:53.232Z,5.90
2019-06-01T21:54:22.306Z,5.93
2019-06-01T21:56:50.888Z,6.83
2019-06-01T21:59:20.509Z,8.07
2019-06-01T22:01:49.245Z,5.47
2019-06-01T22:04:18.713Z,6.30
2019-06-01T22:06:47.484Z,6.80
2019-06-01T22:09:17.159Z,5.63
2019-06-01T22:11:45.900Z,5.37
2019-06-01T22:14:14.526Z,5.03
2019-06-01T22:16:43.375Z,5.87
2019-06-01T22:19:11.960Z,4.93
2019-06-01T22:21:40.457Z,5.63
2019-06-01T22:24:08.942Z,5.83
2019-06-01T22:26:37.510Z,6.40
2019-06-01T22:29:06.144Z,7.17
2019-06-01T22:31:34.921Z,5.63
2019-06-01T22:34:03.479Z,5.43
2019-06-01T22:36:32.116Z,7.93
2019-06-01T22:39:00.709Z,8.13
2019-06-01T22:41:29.342Z,7.33
2019-06-01T22:43:58.191Z,6.33
2019-06-01T22:46:26.931Z,5.13
2019-06-01T22:48:55.825Z,9.10
2019-06-01T22:51:24.980Z,7.03
2019-06-01T22:53:53.529Z,6.57
2019-06-01T22:56:23.204Z,6.57
2019-06-01T22:58:51.933Z,6.17
2019-06-01T23:01:21.028Z,5.10
2019-06-01T23:03:49.674Z,4.83
2019-06-01T23:06:18.246Z,6.63
2019-06-01T23:08:46.862Z,4.80
2019-06-01T23:11:15.503Z,6.17
2019-06-01T23:13:53.156Z,6.20
2019-06-01T23:16:14.271Z,6.23
2019-06-01T23:18:42.961Z,7.83
2019-06-01T23:21:11.522Z,6.10
2019-06-01T23:23:40.083Z,5.70
2019-06-01T23:26:08.733Z,5.50
2019-06-01T23:28:38.745Z,5.47
2019-06-01T23:31:07.611Z,7.73
2019-06-01T23:33:36.195Z,7.47
2019-06-01T23:36:04.896Z,7.27
2019-06-01T23:38:33.514Z,8.40
2019-06-01T23:41:02.086Z,8.30
2019-06-01T23:43:30.977Z,6.67
2019-06-01T23:45:59.602Z,6.40
2019-06-01T23:48:29.316Z,6.80
2019-06-01T23:50:57.944Z,6.13
2019-06-01T23:53:27.491Z,7.23
2019-06-01T23:55:56.201Z,9.43
2019-06-01T23:58:25.913Z,7.53
